createdAt,value
2018-09-06T00:01:47.553Z,13.28
2018-09-06T00:04:18.434Z,12.88
2018-09-06T00:06:49.292Z,13.90
2018-09-06T00:09:20.258Z,13.53
2018-09-06T00:11:51.189Z,13.48
2018-09-06T00:14:22.050Z,13.58
2018-09-06T00:16:53.031Z,14.10
2018-09-06T00:19:24.112Z,13.03
2018-09-06T00:21:55.061Z,14.05
2018-09-06T00:24:25.967Z,12.80
2018-09-06T00:26:57.195Z,13.50
2018-09-06T00:29:28.050Z,12.70
2018-09-06T00:31:58.927Z,12.70
2018-09-06T00:34:29.746Z,12.60
2018-09-06T00:37:00.601Z,13.05
2018-09-06T00:39:31.433Z,12.47
2018-09-06T00:42:02.290Z,12.90
2018-09-06T00:44:33.509Z,12.47
2018-09-06T00:47:04.433Z,12.20
2018-09-06T00:49:35.259Z,11.77
2018-09-06T00:52:06.180Z,11.70
2018-09-06T00:54:37.106Z,12.53
2018-09-06T00:57:08.256Z,11.73
2018-09-06T00:59:39.131Z,12.07
2018-09-06T01:02:10.354Z,10.93
2018-09-06T01:04:41.383Z,11.00
2018-09-06T01:07:12.282Z,11.70
2018-09-06T01:09:43.392Z,10.77
2018-09-06T01:12:15.726Z,11.80
2018-09-06T01:14:46.563Z,11.77
2018-09-06T01:17:17.622Z,11.53
2018-09-06T01:19:48.490Z,11.77
2018-09-06T01:22:19.478Z,13.83
2018-09-06T01:24:50.399Z,11.40
2018-09-06T01:27:21.277Z,10.80
2018-09-06T01:29:52.794Z,10.43
2018-09-06T01:32:23.716Z,10.00
2018-09-06T01:34:54.646Z,10.13
2018-09-06T01:37:25.746Z,11.77
2018-09-06T01:39:56.729Z,9.80
2018-09-06T01:42:27.668Z,9.70
2018-09-06T01:44:58.732Z,9.93
2018-09-06T01:47:29.618Z,10.97
2018-09-06T01:50:00.461Z,10.33
2018-09-06T01:52:31.424Z,10.53
2018-09-06T01:55:02.325Z,10.37
2018-09-06T01:57:33.350Z,10.17
2018-09-06T02:00:04.482Z,10.53
2018-09-06T02:02:35.394Z,9.67
2018-09-06T02:05:06.516Z,9.50
2018-09-06T02:07:37.378Z,10.40
2018-09-06T02:10:08.348Z,9.63
2018-09-06T02:12:39.422Z,9.60
2018-09-06T02:15:10.380Z,10.10
2018-09-06T02:17:41.303Z,10.07
2018-09-06T02:20:12.267Z,10.33
2018-09-06T02:22:43.991Z,9.47
2018-09-06T02:25:14.921Z,10.30
2018-09-06T02:27:45.864Z,9.97
2018-09-06T02:30:16.833Z,9.77
2018-09-06T02:32:47.727Z,9.83
2018-09-06T02:35:18.560Z,10.10
2018-09-06T02:37:49.526Z,10.10
2018-09-06T02:40:25.582Z,10.30
2018-09-06T02:42:56.652Z,10.13
2018-09-06T02:45:27.865Z,10.00
2018-09-06T02:47:58.776Z,10.30
2018-09-06T02:50:35.497Z,9.27
2018-09-06T02:53:06.441Z,9.00
2018-09-06T02:55:37.408Z,9.17
2018-09-06T02:58:08.353Z,9.03
2018-09-06T03:00:39.640Z,9.20
2018-09-06T03:03:10.572Z,8.97
2018-09-06T03:05:41.543Z,9.63
2018-09-06T03:08:12.493Z,9.83
2018-09-06T03:10:44.885Z,9.93
2018-09-06T03:13:15.754Z,10.80
2018-09-06T03:15:46.710Z,10.93
2018-09-06T03:18:17.676Z,12.07
2018-09-06T03:20:48.544Z,9.87
2018-09-06T03:23:19.519Z,11.03
2018-09-06T03:25:50.478Z,9.80
2018-09-06T03:28:21.345Z,9.67
2018-09-06T03:30:52.414Z,10.40
2018-09-06T03:33:23.378Z,9.40
2018-09-06T03:35:54.344Z,10.77
2018-09-06T03:38:26.187Z,10.00
2018-09-06T03:40:57.437Z,10.57
2018-09-06T03:43:28.383Z,9.83
2018-09-06T03:45:59.405Z,9.20
2018-09-06T03:48:30.398Z,10.20
2018-09-06T03:51:01.265Z,9.77
2018-09-06T03:53:32.167Z,10.13
2018-09-06T03:56:03.073Z,9.87
2018-09-06T03:58:34.005Z,9.83
2018-09-06T04:01:04.938Z,12.10
2018-09-06T04:03:35.983Z,11.63
2018-09-06T04:06:07.069Z,11.30
2018-09-06T04:08:37.974Z,12.37
2018-09-06T04:11:08.886Z,10.40
2018-09-06T04:13:39.893Z,13.77
2018-09-06T04:16:10.761Z,11.27
2018-09-06T04:18:41.894Z,11.33
2018-09-06T04:21:12.745Z,11.33
2018-09-06T04:23:43.736Z,11.43
2018-09-06T04:26:14.585Z,11.27
2018-09-06T04:28:46.484Z,11.90
2018-09-06T04:31:17.422Z,11.70
2018-09-06T04:33:48.585Z,11.50
2018-09-06T04:36:19.525Z,10.60
2018-09-06T04:38:50.365Z,11.17
2018-09-06T04:41:21.281Z,14.17
2018-09-06T04:43:52.401Z,13.53
2018-09-06T04:46:23.305Z,12.13
2018-09-06T04:48:54.225Z,11.03
2018-09-06T04:51:25.086Z,11.40
2018-09-06T04:53:56.044Z,10.90
2018-09-06T04:56:28.274Z,11.13
2018-09-06T04:58:59.709Z,11.63
2018-09-06T05:01:30.732Z,10.70
2018-09-06T05:04:01.768Z,10.83
2018-09-06T05:06:32.789Z,11.73
2018-09-06T05:09:06.243Z,11.37
2018-09-06T05:11:37.701Z,10.30
2018-09-06T05:14:08.727Z,11.40
2018-09-06T05:16:39.739Z,10.70
2018-09-06T05:19:10.646Z,10.43
2018-09-06T05:21:41.668Z,10.15
2018-09-06T05:24:12.505Z,9.68
2018-09-06T05:26:43.389Z,10.55
2018-09-06T05:29:14.326Z,10.72
2018-09-06T05:31:45.272Z,10.15
2018-09-06T05:34:16.378Z,10.03
2018-09-06T05:36:47.318Z,11.33
2018-09-06T05:39:18.343Z,11.43
2018-09-06T05:41:49.253Z,11.75
2018-09-06T05:44:20.268Z,11.68
2018-09-06T05:46:51.315Z,10.28
2018-09-06T05:49:22.269Z,11.30
2018-09-06T05:51:53.240Z,14.43
2018-09-06T05:54:24.223Z,12.53
2018-09-06T05:56:55.149Z,12.40
2018-09-06T05:59:26.120Z,11.45
2018-09-06T06:01:57.064Z,10.15
2018-09-06T06:04:28.047Z,12.20
2018-09-06T06:06:59.017Z,9.90
2018-09-06T06:09:29.944Z,10.23
2018-09-06T06:12:00.993Z,10.98
2018-09-06T06:14:32.010Z,10.10
2018-09-06T06:17:02.827Z,9.43
2018-09-06T06:19:33.667Z,9.38
2018-09-06T06:22:04.670Z,9.30
2018-09-06T06:24:35.598Z,8.65
2018-09-06T06:27:06.524Z,8.33
2018-09-06T06:29:38.223Z,8.15
2018-09-06T06:32:09.168Z,8.18
2018-09-06T06:34:40.281Z,7.65
2018-09-06T06:37:11.213Z,7.92
2018-09-06T06:39:42.309Z,7.75
2018-09-06T06:42:13.275Z,7.72
2018-09-06T06:44:44.352Z,7.42
2018-09-06T06:47:15.192Z,6.70
2018-09-06T06:49:46.776Z,6.80
2018-09-06T06:52:17.720Z,6.00
2018-09-06T06:54:48.872Z,6.65
2018-09-06T06:57:19.762Z,6.53
2018-09-06T06:59:50.703Z,7.05
2018-09-06T07:02:21.668Z,6.60
2018-09-06T07:04:52.587Z,6.90
2018-09-06T07:07:23.488Z,6.30
2018-09-06T07:09:54.350Z,6.60
2018-09-06T07:12:25.354Z,7.15
2018-09-06T07:14:56.402Z,8.00
2018-09-06T07:17:27.708Z,6.58
2018-09-06T07:19:58.617Z,7.45
2018-09-06T07:22:29.492Z,6.35
2018-09-06T07:25:00.714Z,6.33
2018-09-06T07:27:31.599Z,6.08
2018-09-06T07:30:02.626Z,6.28
2018-09-06T07:32:33.575Z,5.70
2018-09-06T07:35:04.528Z,6.00
2018-09-06T07:37:35.643Z,6.25
2018-09-06T07:40:07.183Z,5.37
2018-09-06T07:42:38.127Z,6.60
2018-09-06T07:45:09.136Z,6.12
2018-09-06T07:47:40.081Z,6.95
2018-09-06T07:50:11.110Z,5.72
2018-09-06T07:52:42.044Z,7.65
2018-09-06T07:55:12.968Z,5.70
2018-09-06T07:57:43.930Z,5.87
2018-09-06T08:00:14.911Z,5.87
2018-09-06T08:02:45.952Z,5.30
2018-09-06T08:05:16.822Z,5.42
2018-09-06T08:07:47.709Z,5.37
2018-09-06T08:10:18.740Z,5.67
2018-09-06T08:12:49.652Z,5.17
2018-09-06T08:15:20.531Z,5.45
2018-09-06T08:17:51.469Z,5.67
2018-09-06T08:20:22.404Z,5.33
2018-09-06T08:22:53.212Z,5.55
2018-09-06T08:25:24.109Z,5.45
2018-09-06T08:27:55.068Z,5.17
2018-09-06T08:30:26.012Z,5.37
2018-09-06T08:32:56.890Z,5.20
2018-09-06T08:35:27.850Z,5.37
2018-09-06T08:37:58.879Z,4.90
2018-09-06T08:40:29.757Z,5.85
2018-09-06T08:43:00.852Z,5.50
2018-09-06T08:45:31.945Z,5.15
2018-09-06T08:48:02.806Z,5.33
2018-09-06T08:50:33.704Z,5.42
2018-09-06T08:53:04.662Z,5.97
2018-09-06T08:55:35.855Z,5.60
2018-09-06T08:58:06.856Z,5.83
2018-09-06T09:00:40.250Z,5.37
2018-09-06T09:03:11.425Z,5.97
2018-09-06T09:05:42.394Z,5.92
2018-09-06T09:08:13.354Z,4.78
2018-09-06T09:10:44.470Z,6.90
2018-09-06T09:13:15.444Z,8.20
2018-09-06T09:15:46.517Z,6.62
2018-09-06T09:18:17.517Z,5.87
2018-09-06T09:20:48.493Z,6.30
2018-09-06T09:23:20.116Z,5.75
2018-09-06T09:25:51.075Z,6.00
2018-09-06T09:28:22.051Z,5.92
2018-09-06T09:30:53.040Z,5.37
2018-09-06T09:33:24.062Z,5.80
2018-09-06T09:35:55.217Z,6.03
2018-09-06T09:38:26.122Z,6.40
2018-09-06T09:40:57.208Z,6.15
2018-09-06T09:43:28.236Z,6.70
2018-09-06T09:48:29.258Z,6.28
2018-09-06T09:51:00.253Z,6.22
2018-09-06T09:53:31.031Z,6.12
2018-09-06T09:56:02.067Z,5.03
2018-09-06T09:58:33.027Z,6.42
2018-09-06T10:01:04.051Z,7.83
2018-09-06T10:03:40.134Z,5.72
2018-09-06T10:06:16.001Z,5.53
2018-09-06T10:08:52.045Z,5.70
2018-09-06T10:11:23.027Z,5.80
2018-09-06T10:13:54.174Z,9.40
2018-09-06T10:16:25.236Z,7.85
2018-09-06T10:18:56.218Z,6.37
2018-09-06T10:21:27.168Z,8.45
2018-09-06T10:23:58.274Z,6.97
2018-09-06T10:26:29.303Z,7.22
2018-09-06T10:29:00.111Z,7.25
2018-09-06T10:31:31.133Z,7.62
2018-09-06T10:34:02.158Z,7.33
2018-09-06T10:36:33.491Z,6.97
2018-09-06T10:39:05.766Z,8.18
2018-09-06T10:41:36.867Z,7.42
2018-09-06T10:44:07.968Z,8.18
2018-09-06T10:46:39.185Z,8.23
2018-09-06T10:49:10.142Z,7.80
2018-09-06T10:51:41.128Z,7.22
2018-09-06T10:54:12.105Z,7.53
2018-09-06T10:56:43.169Z,8.20
2018-09-06T10:59:14.249Z,8.20
2018-09-06T11:01:45.154Z,9.03
2018-09-06T11:04:16.133Z,8.20
2018-09-06T11:06:47.313Z,8.45
2018-09-06T11:09:18.307Z,7.97
2018-09-06T11:11:49.360Z,8.15
2018-09-06T11:14:20.211Z,8.75
2018-09-06T11:16:51.255Z,8.80
2018-09-06T11:19:22.168Z,9.75
2018-09-06T11:21:53.389Z,8.85
2018-09-06T11:24:24.657Z,8.80
2018-09-06T11:26:55.619Z,8.35
2018-09-06T11:29:26.803Z,8.98
2018-09-06T11:31:58.697Z,7.83
2018-09-06T11:34:29.780Z,9.25
2018-09-06T11:37:00.759Z,8.70
2018-09-06T11:39:32.003Z,8.60
2018-09-06T11:42:03.101Z,8.13
2018-09-06T11:44:34.136Z,8.35
2018-09-06T11:47:05.745Z,8.78
2018-09-06T11:49:36.712Z,7.30
2018-09-06T11:52:08.171Z,7.90
2018-09-06T11:54:39.120Z,8.25
2018-09-06T11:57:10.321Z,7.47
2018-09-06T11:59:41.429Z,7.80
2018-09-06T12:02:12.534Z,7.75
2018-09-06T12:04:43.567Z,8.00
2018-09-06T12:07:14.634Z,7.80
2018-09-06T12:09:45.694Z,7.22
2018-09-06T12:12:16.612Z,7.37
2018-09-06T12:14:47.637Z,7.92
2018-09-06T12:17:18.532Z,7.65
2018-09-06T12:19:49.818Z,8.33
2018-09-06T12:22:20.774Z,7.00
2018-09-06T12:24:51.987Z,6.60
2018-09-06T12:27:22.941Z,7.50
2018-09-06T12:29:53.993Z,7.90
2018-09-06T12:32:24.947Z,7.12
2018-09-06T12:34:55.915Z,7.28
2018-09-06T12:37:26.836Z,7.28
2018-09-06T12:39:57.918Z,6.95
2018-09-06T12:42:29.009Z,7.50
2018-09-06T12:44:59.962Z,7.22
2018-09-06T12:47:31.304Z,6.65
2018-09-06T12:50:02.374Z,7.35
2018-09-06T12:52:34.076Z,6.58
2018-09-06T12:55:06.004Z,6.85
2018-09-06T12:57:36.918Z,6.35
2018-09-06T13:00:08.433Z,6.75
2018-09-06T13:02:39.454Z,7.05
2018-09-06T13:05:10.390Z,6.90
2018-09-06T13:07:41.649Z,7.00
2018-09-06T13:10:12.753Z,7.47
2018-09-06T13:12:43.764Z,6.95
2018-09-06T13:15:14.702Z,6.80
2018-09-06T13:17:45.728Z,7.17
2018-09-06T13:20:16.649Z,6.22
2018-09-06T13:22:47.668Z,6.70
2018-09-06T13:25:18.670Z,7.00
2018-09-06T13:27:49.622Z,6.70
2018-09-06T13:30:20.551Z,6.53
2018-09-06T13:32:51.455Z,6.90
2018-09-06T13:35:22.393Z,6.95
2018-09-06T13:37:53.292Z,7.40
2018-09-06T13:40:24.449Z,7.17
2018-09-06T13:42:55.409Z,7.53
2018-09-06T13:45:26.322Z,7.08
2018-09-06T13:47:57.214Z,7.58
2018-09-06T13:50:28.085Z,7.15
2018-09-06T13:52:59.008Z,7.55
2018-09-06T13:55:29.865Z,8.13
2018-09-06T13:58:01.009Z,7.62
2018-09-06T14:00:32.036Z,8.05
2018-09-06T14:03:02.935Z,8.60
2018-09-06T14:05:33.985Z,7.53
2018-09-06T14:08:05.082Z,8.63
2018-09-06T14:10:36.044Z,9.03
2018-09-06T14:13:07.091Z,8.73
2018-09-06T14:15:38.043Z,8.35
2018-09-06T14:18:08.936Z,8.68
2018-09-06T14:20:39.826Z,9.18
2018-09-06T14:23:10.746Z,13.72
2018-09-06T14:25:41.721Z,11.00
2018-09-06T14:28:12.684Z,11.57
2018-09-06T14:30:43.702Z,10.68
2018-09-06T14:33:14.767Z,15.78
2018-09-06T14:35:46.085Z,11.10
2018-09-06T14:38:17.131Z,12.25
2018-09-06T14:40:48.144Z,16.48
2018-09-06T14:43:19.201Z,12.00
2018-09-06T14:45:50.689Z,11.20
2018-09-06T14:48:21.660Z,9.90
2018-09-06T14:50:52.701Z,9.85
2018-09-06T14:53:23.619Z,10.58
2018-09-06T14:55:54.623Z,10.55
2018-09-06T14:58:25.588Z,9.60
2018-09-06T15:00:56.594Z,11.90
2018-09-06T15:03:27.537Z,18.15
2018-09-06T15:05:59.423Z,11.10
2018-09-06T15:08:30.405Z,9.35
2018-09-06T15:11:01.365Z,8.95
2018-09-06T15:13:32.522Z,14.07
2018-09-06T15:16:03.451Z,9.43
2018-09-06T15:18:34.427Z,11.08
2018-09-06T15:21:05.395Z,12.05
2018-09-06T15:23:36.467Z,9.18
2018-09-06T15:26:07.419Z,11.90
2018-09-06T15:28:38.452Z,10.72
2018-09-06T15:31:09.412Z,11.60
2018-09-06T15:33:40.335Z,8.65
2018-09-06T15:36:11.368Z,10.15
2018-09-06T15:38:42.468Z,12.35
2018-09-06T15:41:13.765Z,13.68
2018-09-06T15:43:44.858Z,11.08
2018-09-06T15:46:16.201Z,10.43
2018-09-06T15:48:47.316Z,11.75
2018-09-06T15:51:18.403Z,11.90
2018-09-06T15:53:49.405Z,11.68
2018-09-06T15:56:20.322Z,10.68
2018-09-06T15:58:52.286Z,17.20
2018-09-06T16:01:23.276Z,11.88
2018-09-06T16:03:54.440Z,12.07
2018-09-06T16:06:25.353Z,10.58
2018-09-06T16:08:56.364Z,10.20
2018-09-06T16:11:27.699Z,10.10
2018-09-06T16:13:58.718Z,9.98
2018-09-06T16:16:29.920Z,9.78
2018-09-06T16:19:01.017Z,10.13
2018-09-06T16:21:32.135Z,9.43
2018-09-06T16:24:03.071Z,10.32
2018-09-06T16:26:34.319Z,8.80
2018-09-06T16:29:05.699Z,11.33
2018-09-06T16:31:36.656Z,10.38
2018-09-06T16:34:08.098Z,10.32
2018-09-06T16:36:39.302Z,10.50
2018-09-06T16:39:11.686Z,10.58
2018-09-06T16:41:42.916Z,10.08
2018-09-06T16:44:13.810Z,10.25
2018-09-06T16:46:44.846Z,10.20
2018-09-06T16:49:15.958Z,10.58
2018-09-06T16:51:47.029Z,10.63
2018-09-06T16:54:18.127Z,10.30
2018-09-06T16:56:49.014Z,9.88
2018-09-06T16:59:19.958Z,11.15
2018-09-06T17:01:51.134Z,10.60
2018-09-06T17:04:22.382Z,10.13
2018-09-06T17:06:53.364Z,10.18
2018-09-06T17:09:24.366Z,10.93
2018-09-06T17:11:55.533Z,9.73
2018-09-06T17:14:26.547Z,10.85
2018-09-06T17:16:57.528Z,10.43
2018-09-06T17:19:28.860Z,10.32
2018-09-06T17:22:00.848Z,10.43
2018-09-06T17:24:31.930Z,10.48
2018-09-06T17:27:02.982Z,10.98
2018-09-06T17:29:34.600Z,10.80
2018-09-06T17:32:05.595Z,10.60
2018-09-06T17:34:36.754Z,9.48
2018-09-06T17:37:07.824Z,9.73
2018-09-06T17:39:39.531Z,10.15
2018-09-06T17:42:10.530Z,10.65
2018-09-06T17:44:41.715Z,10.23
2018-09-06T17:47:12.910Z,10.35
2018-09-06T17:49:43.988Z,9.45
2018-09-06T17:52:15.106Z,10.10
2018-09-06T17:54:46.140Z,9.65
2018-09-06T17:57:17.195Z,10.28
2018-09-06T17:59:48.189Z,10.32
2018-09-06T18:02:19.398Z,8.98
2018-09-06T18:04:50.410Z,10.40
2018-09-06T18:07:21.646Z,10.08
2018-09-06T18:09:52.761Z,10.38
2018-09-06T18:12:24.281Z,10.48
2018-09-06T18:14:55.816Z,9.83
2018-09-06T18:17:27.118Z,10.20
2018-09-06T18:19:59.015Z,9.50
2018-09-06T18:22:30.979Z,10.75
2018-09-06T18:25:04.617Z,10.45
2018-09-06T18:27:35.838Z,9.98
2018-09-06T18:30:07.717Z,9.68
2018-09-06T18:32:39.033Z,9.58
2018-09-06T18:35:11.087Z,10.45
2018-09-06T18:37:42.260Z,10.55
2018-09-06T18:40:13.721Z,8.83
2018-09-06T18:42:45.000Z,9.18
2018-09-06T18:45:16.031Z,10.05
2018-09-06T18:47:47.180Z,9.60
2018-09-06T18:50:18.385Z,10.50
2018-09-06T18:52:49.364Z,10.40
2018-09-06T18:55:20.441Z,9.88
2018-09-06T18:57:51.633Z,10.60
2018-09-06T19:00:22.691Z,10.32
2018-09-06T19:02:53.773Z,10.85
2018-09-06T19:05:24.994Z,9.88
2018-09-06T19:07:56.107Z,10.13
2018-09-06T19:10:27.127Z,10.55
2018-09-06T19:12:58.823Z,10.55
2018-09-06T19:15:29.795Z,10.35
2018-09-06T19:18:01.000Z,10.82
2018-09-06T19:20:32.981Z,10.20
2018-09-06T19:23:04.209Z,10.58
2018-09-06T19:25:35.720Z,10.10
2018-09-06T19:28:07.086Z,10.98
2018-09-06T19:30:38.193Z,11.40
2018-09-06T19:33:09.760Z,11.15
2018-09-06T19:35:40.986Z,10.63
2018-09-06T19:38:12.112Z,9.85
2018-09-06T19:40:43.536Z,10.28
2018-09-06T19:43:15.641Z,9.98
2018-09-06T19:45:52.966Z,10.13
2018-09-06T19:48:27.995Z,11.12
2018-09-06T19:50:59.557Z,10.53
2018-09-06T19:53:30.686Z,9.50
2018-09-06T19:56:01.686Z,9.58
2018-09-06T19:58:33.280Z,9.73
2018-09-06T20:01:04.700Z,9.38
2018-09-06T20:03:35.778Z,9.45
2018-09-06T20:06:07.265Z,9.65
2018-09-06T20:08:39.784Z,9.20
2018-09-06T20:11:11.933Z,10.28
2018-09-06T20:13:42.980Z,9.83
2018-09-06T20:16:15.757Z,9.20
2018-09-06T20:18:47.499Z,9.38
2018-09-06T20:21:18.626Z,11.10
2018-09-06T20:23:49.989Z,10.25
2018-09-06T20:26:21.049Z,11.30
2018-09-06T20:28:52.472Z,11.33
2018-09-06T20:31:23.727Z,10.38
2018-09-06T20:33:55.342Z,11.15
2018-09-06T20:36:26.481Z,12.00
2018-09-06T20:38:57.811Z,10.47
2018-09-06T20:41:28.718Z,10.60
2018-09-06T20:44:00.717Z,10.67
2018-09-06T20:46:31.810Z,10.50
2018-09-06T20:49:02.955Z,10.70
2018-09-06T20:51:35.271Z,10.10
2018-09-06T20:54:06.366Z,9.95
2018-09-06T20:56:37.654Z,9.60
2018-09-06T20:59:08.632Z,9.68
2018-09-06T21:01:39.972Z,10.78
2018-09-06T21:04:11.081Z,10.48
2018-09-06T21:06:41.956Z,9.18
2018-09-06T21:09:13.052Z,9.23
2018-09-06T21:11:44.184Z,21.77
2018-09-06T21:14:15.185Z,12.50
2018-09-06T21:16:46.057Z,10.17
2018-09-06T21:19:16.986Z,9.57
2018-09-06T21:21:48.225Z,9.53
2018-09-06T21:24:19.454Z,9.50
2018-09-06T21:26:50.416Z,9.17
2018-09-06T21:29:21.428Z,10.13
2018-09-06T21:31:52.644Z,9.43
2018-09-06T21:34:23.722Z,10.10
2018-09-06T21:36:54.978Z,9.73
2018-09-06T21:39:25.929Z,9.40
2018-09-06T21:41:56.876Z,9.17
2018-09-06T21:44:27.864Z,9.77
2018-09-06T21:46:58.828Z,10.00
2018-09-06T21:49:29.710Z,10.10
2018-09-06T21:52:00.605Z,10.37
2018-09-06T21:54:31.652Z,11.27
2018-09-06T21:57:02.612Z,14.07
2018-09-06T21:59:33.545Z,11.77
2018-09-06T22:02:04.520Z,10.08
2018-09-06T22:04:35.532Z,9.33
2018-09-06T22:07:06.425Z,10.17
2018-09-06T22:09:37.385Z,10.00
2018-09-06T22:12:12.292Z,10.73
2018-09-06T22:14:43.259Z,9.43
2018-09-06T22:17:14.156Z,10.70
2018-09-06T22:19:45.276Z,10.00
2018-09-06T22:22:16.332Z,9.77
2018-09-06T22:24:47.529Z,9.93
2018-09-06T22:27:18.497Z,10.50
2018-09-06T22:29:49.427Z,9.87
2018-09-06T22:32:20.289Z,11.03
2018-09-06T22:34:51.168Z,10.07
2018-09-06T22:37:22.337Z,10.17
2018-09-06T22:39:53.393Z,10.57
2018-09-06T22:42:24.411Z,9.77
2018-09-06T22:44:56.240Z,9.90
2018-09-06T22:47:27.863Z,9.83
2018-09-06T22:49:58.754Z,9.70
2018-09-06T22:52:29.685Z,10.20
2018-09-06T22:55:00.576Z,9.70
2018-09-06T22:57:31.564Z,10.00
2018-09-06T23:00:02.623Z,10.23
2018-09-06T23:02:38.569Z,10.30
2018-09-06T23:05:09.830Z,9.20
2018-09-06T23:07:40.992Z,9.70
2018-09-06T23:10:11.977Z,9.97
2018-09-06T23:12:43.888Z,10.57
2018-09-06T23:15:15.176Z,10.13
2018-09-06T23:17:45.980Z,11.40
2018-09-06T23:20:17.549Z,9.63
2018-09-06T23:22:49.000Z,10.57
2018-09-06T23:25:20.884Z,10.40
2018-09-06T23:27:52.383Z,10.70
2018-09-06T23:30:24.268Z,11.30
2018-09-06T23:32:55.571Z,10.87
2018-09-06T23:35:26.632Z,10.93
2018-09-06T23:37:58.250Z,11.57
2018-09-06T23:40:29.714Z,11.67
2018-09-06T23:43:00.729Z,11.60
2018-09-06T23:45:31.672Z,12.00
2018-09-06T23:48:02.840Z,13.43
2018-09-06T23:50:33.783Z,12.57
2018-09-06T23:53:04.635Z,13.10
2018-09-06T23:55:35.588Z,11.97
2018-09-06T23:58:06.734Z,12.83
